Time;durP1;ratioP1;P1;durP2;ratioP2;P2;SDS_P1;SDS_P2;PMS_P1;PMS_P2;Temp;Humidity;BMP_temperature;BMP_pressure;BME280_temperature;BME280_humidity;BME280_pressure;Samples;Min_cycle;Max_cycle;Signal;HPM_P1;HPM_P2
2023/08/11 00:01:48;;;;;;;75.13;7.47;;;;;;;;;;5084962;27;20038;-56
2023/08/11 00:04:14;;;;;;;148.50;11.93;;;;;;;;;;5081963;27;20293;-54
2023/08/11 00:06:39;;;;;;;80.60;7.75;;;;;;;;;;5085085;28;20030;-55
2023/08/11 00:09:08;;;;;;;74.57;7.70;;;;;;;;;;5083782;28;20405;-55
2023/08/11 00:11:33;;;;;;;99.13;8.85;;;;;;;;;;5083762;28;20028;-52
2023/08/11 00:13:59;;;;;;;92.93;9.15;;;;;;;;;;5083313;28;20046;-52
2023/08/11 00:16:24;;;;;;;149.90;12.35;;;;;;;;;;5079497;28;20036;-54
2023/08/11 00:18:50;;;;;;;96.47;8.90;;;;;;;;;;5085536;28;20606;-54
2023/08/11 00:21:16;;;;;;;136.75;11.98;;;;;;;;;;5080763;28;20038;-53
2023/08/11 00:23:43;;;;;;;75.00;7.63;;;;;;;;;;5085729;28;20016;-54
2023/08/11 00:26:10;;;;;;;99.35;9.13;;;;;;;;;;5086247;28;20059;-53
2023/08/11 00:28:35;;;;;;;80.55;7.97;;;;;;;;;;5083879;28;20521;-55
2023/08/11 00:31:00;;;;;;;92.68;9.00;;;;;;;;;;5082003;28;20043;-54
2023/08/11 00:33:26;;;;;;;153.02;12.32;;;;;;;;;;5082255;28;20011;-54
2023/08/11 00:35:51;;;;;;;81.83;8.43;;;;;;;;;;5084189;28;20036;-53
2023/08/11 00:38:16;;;;;;;138.32;11.98;;;;;;;;;;5081854;28;20743;-55
2023/08/11 00:40:42;;;;;;;91.85;8.25;;;;;;;;;;5082859;28;20040;-54
2023/08/11 00:43:07;;;;;;;77.65;8.60;;;;;;;;;;5083881;28;20020;-53
2023/08/11 00:45:33;;;;;;;77.53;8.02;;;;;;;;;;5082271;28;20442;-54
2023/08/11 00:47:58;;;;;;;121.30;9.90;;;;;;;;;;5084308;28;20073;-55
2023/08/11 00:50:24;;;;;;;134.95;11.68;;;;;;;;;;5079702;28;20020;-53
2023/08/11 00:52:49;;;;;;;74.22;7.97;;;;;;;;;;5082753;28;20500;-53
2023/08/11 00:55:16;;;;;;;115.35;9.63;;;;;;;;;;5081405;28;20023;-53
2023/08/11 00:57:42;;;;;;;75.53;8.15;;;;;;;;;;5082309;28;20020;-55
2023/08/11 01:00:12;;;;;;;84.97;8.25;;;;;;;;;;5080978;28;20651;-53
2023/08/11 01:02:40;;;;;;;107.93;9.35;;;;;;;;;;5084166;28;20042;-54
2023/08/11 01:05:06;;;;;;;83.55;8.13;;;;;;;;;;5080697;28;20448;-55
2023/08/11 01:07:33;;;;;;;93.15;8.80;;;;;;;;;;5082661;28;20701;-53
2023/08/11 01:09:59;;;;;;;94.20;8.30;;;;;;;;;;5083183;28;20107;-53
2023/08/11 01:12:27;;;;;;;146.65;12.75;;;;;;;;;;5081794;28;20032;-53
2023/08/11 01:15:11;;;;;;;95.15;8.68;;;;;;;;;;5082416;28;20561;-55
2023/08/11 01:17:38;;;;;;;65.15;7.68;;;;;;;;;;5081213;28;20126;-53
2023/08/11 01:20:09;;;;;;;89.97;8.15;;;;;;;;;;5081720;28;20043;-53
2023/08/11 01:22:35;;;;;;;71.30;7.68;;;;;;;;;;5082830;28;20413;-55
2023/08/11 01:25:01;;;;;;;90.50;8.68;;;;;;;;;;5081465;28;20467;-53
2023/08/11 01:27:27;;;;;;;151.02;12.15;;;;;;;;;;5083003;28;20019;-54
2023/08/11 01:29:53;;;;;;;102.53;9.32;;;;;;;;;;5082840;28;20472;-54
2023/08/11 01:32:18;;;;;;;146.83;12.53;;;;;;;;;;5080352;28;20481;-53
2023/08/11 01:34:43;;;;;;;92.55;8.52;;;;;;;;;;5081559;28;20767;-53
2023/08/11 01:37:09;;;;;;;103.07;9.15;;;;;;;;;;5082540;28;20123;-52
2023/08/11 01:39:34;;;;;;;75.50;7.68;;;;;;;;;;5082163;28;20487;-53
2023/08/11 01:42:01;;;;;;;82.80;8.03;;;;;;;;;;5081974;28;20261;-54
2023/08/11 01:44:26;;;;;;;139.55;11.98;;;;;;;;;;5081587;28;20656;-53
2023/08/11 01:46:53;;;;;;;80.10;8.15;;;;;;;;;;5083840;28;20032;-53
2023/08/11 01:49:19;;;;;;;156.60;11.93;;;;;;;;;;5080582;28;20120;-54
2023/08/11 01:51:44;;;;;;;84.63;8.20;;;;;;;;;;5081461;28;20028;-54
2023/08/11 01:54:10;;;;;;;62.75;7.22;;;;;;;;;;5073485;28;20253;-55
2023/08/11 01:56:36;;;;;;;100.50;8.93;;;;;;;;;;5080853;28;20283;-52
2023/08/11 01:59:02;;;;;;;91.32;8.63;;;;;;;;;;5082067;28;20035;-53
2023/08/11 02:01:27;;;;;;;141.75;11.80;;;;;;;;;;5080119;28;20085;-55
2023/08/11 02:03:53;;;;;;;116.65;9.85;;;;;;;;;;5081188;28;20158;-53
2023/08/11 02:06:18;;;;;;;136.10;11.13;;;;;;;;;;5080835;28;20054;-53
2023/08/11 02:08:43;;;;;;;82.55;7.47;;;;;;;;;;5082200;28;20479;-53
2023/08/11 02:11:08;;;;;;;90.43;8.63;;;;;;;;;;5070264;28;20093;-52
2023/08/11 02:13:34;;;;;;;67.37;7.17;;;;;;;;;;5081927;28;20304;-54
2023/08/11 02:15:59;;;;;;;97.90;8.23;;;;;;;;;;5081116;28;20270;-54
2023/08/11 02:18:24;;;;;;;148.77;11.80;;;;;;;;;;5080559;28;20034;-53
2023/08/11 02:20:49;;;;;;;80.00;7.80;;;;;;;;;;5081573;28;20149;-52
2023/08/11 02:23:15;;;;;;;82.57;8.00;;;;;;;;;;5082579;28;20072;-53
2023/08/11 02:25:40;;;;;;;78.00;7.68;;;;;;;;;;5080003;28;20262;-53
2023/08/11 02:28:05;;;;;;;91.47;8.15;;;;;;;;;;5082162;28;20428;-54
2023/08/11 02:30:31;;;;;;;135.90;11.52;;;;;;;;;;5078527;28;20028;-55
2023/08/11 02:32:57;;;;;;;108.20;9.68;;;;;;;;;;5080692;28;20035;-55
2023/08/11 02:35:22;;;;;;;142.90;12.13;;;;;;;;;;5078442;28;20320;-54
2023/08/11 02:37:48;;;;;;;85.75;8.63;;;;;;;;;;5080899;28;20408;-55
2023/08/11 02:40:14;;;;;;;100.15;8.90;;;;;;;;;;5079599;28;20085;-52
2023/08/11 02:42:52;;;;;;;77.50;8.00;;;;;;;;;;5080349;28;20319;-52
2023/08/11 02:45:17;;;;;;;93.68;8.80;;;;;;;;;;5079484;28;20021;-52
2023/08/11 02:47:42;;;;;;;81.85;8.00;;;;;;;;;;5083443;28;20053;-54
2023/08/11 02:50:11;;;;;;;74.20;8.00;;;;;;;;;;5081322;28;20393;-53
2023/08/11 02:52:37;;;;;;;145.05;11.60;;;;;;;;;;5079731;28;20027;-55
2023/08/11 02:55:03;;;;;;;68.32;7.70;;;;;;;;;;5082192;28;20024;-54
2023/08/11 02:57:28;;;;;;;115.45;10.48;;;;;;;;;;5078562;28;20028;-54
2023/08/11 02:59:54;;;;;;;106.30;9.45;;;;;;;;;;5080403;28;20028;-53
2023/08/11 03:02:19;;;;;;;92.57;8.88;;;;;;;;;;5081162;28;20342;-52
2023/08/11 03:04:44;;;;;;;74.38;8.18;;;;;;;;;;5064374;28;20446;-56
2023/08/11 03:07:09;;;;;;;107.88;9.57;;;;;;;;;;5080462;28;20032;-54
2023/08/11 03:09:35;;;;;;;154.95;12.15;;;;;;;;;;5080573;28;20393;-55
2023/08/11 03:12:00;;;;;;;95.88;8.98;;;;;;;;;;5083583;28;20070;-56
2023/08/11 03:14:26;;;;;;;142.43;11.30;;;;;;;;;;5083893;28;20026;-56
2023/08/11 03:16:51;;;;;;;89.88;8.35;;;;;;;;;;5084596;28;20450;-59
2023/08/11 03:19:17;;;;;;;90.30;8.55;;;;;;;;;;5085736;28;20013;-54
2023/08/11 03:21:42;;;;;;;97.28;8.80;;;;;;;;;;5066588;28;20536;-54
2023/08/11 03:24:07;;;;;;;76.13;8.00;;;;;;;;;;5084751;27;20392;-56
2023/08/11 03:26:33;;;;;;;116.63;9.57;;;;;;;;;;5083319;28;20035;-56
2023/08/11 03:28:59;;;;;;;137.57;10.88;;;;;;;;;;5085345;28;20046;-55
2023/08/11 03:31:24;;;;;;;144.55;11.77;;;;;;;;;;5083005;28;20097;-55
2023/08/11 03:33:49;;;;;;;78.28;7.78;;;;;;;;;;5084659;28;20039;-57
2023/08/11 03:36:14;;;;;;;101.00;9.35;;;;;;;;;;5083651;28;20405;-55
2023/08/11 03:38:40;;;;;;;83.28;7.82;;;;;;;;;;5082915;28;20123;-55
2023/08/11 03:41:06;;;;;;;91.20;8.70;;;;;;;;;;5085043;28;20036;-53
2023/08/11 03:43:31;;;;;;;158.20;13.15;;;;;;;;;;5068219;28;20032;-55
2023/08/11 03:45:56;;;;;;;87.90;8.80;;;;;;;;;;5084223;28;20031;-55
2023/08/11 03:48:22;;;;;;;99.68;9.50;;;;;;;;;;5082279;27;20277;-54
2023/08/11 03:50:47;;;;;;;106.15;10.15;;;;;;;;;;5075050;28;20512;-55
2023/08/11 03:53:12;;;;;;;89.63;8.70;;;;;;;;;;5084884;28;20027;-54
2023/08/11 03:55:38;;;;;;;140.30;12.27;;;;;;;;;;5082503;28;20560;-54
2023/08/11 03:58:03;;;;;;;111.20;9.70;;;;;;;;;;5084016;28;20253;-55
2023/08/11 04:00:28;;;;;;;146.52;12.73;;;;;;;;;;5082749;28;20039;-54
2023/08/11 04:02:54;;;;;;;86.40;8.43;;;;;;;;;;5085658;28;20035;-56
2023/08/11 04:05:19;;;;;;;107.32;9.18;;;;;;;;;;5084218;28;20020;-56
2023/08/11 04:07:44;;;;;;;75.03;7.60;;;;;;;;;;5083254;28;20358;-54
2023/08/11 04:10:11;;;;;;;77.70;8.00;;;;;;;;;;5082863;28;20337;-54
2023/08/11 04:12:36;;;;;;;160.52;13.38;;;;;;;;;;5081845;28;20249;-55
2023/08/11 04:15:01;;;;;;;86.20;8.57;;;;;;;;;;5082586;28;20046;-54
2023/08/11 04:17:26;;;;;;;141.68;11.93;;;;;;;;;;5082027;28;20035;-55
2023/08/11 04:19:53;;;;;;;108.10;9.57;;;;;;;;;;5084229;28;20493;-54
2023/08/11 04:22:19;;;;;;;81.13;8.10;;;;;;;;;;5083486;28;20123;-54
2023/08/11 04:24:45;;;;;;;85.88;7.95;;;;;;;;;;5082870;28;20450;-54
2023/08/11 04:27:10;;;;;;;101.85;8.90;;;;;;;;;;5081530;28;20035;-55
2023/08/11 04:29:35;;;;;;;142.77;12.52;;;;;;;;;;5082007;28;20012;-55
2023/08/11 04:32:04;;;;;;;79.97;8.18;;;;;;;;;;5083003;28;20032;-54
2023/08/11 04:34:29;;;;;;;174.68;13.70;;;;;;;;;;5080789;28;20022;-56
2023/08/11 04:36:55;;;;;;;82.10;7.88;;;;;;;;;;5082850;28;20028;-56
2023/08/11 04:39:20;;;;;;;94.10;8.73;;;;;;;;;;5082671;28;20023;-56
2023/08/11 04:41:45;;;;;;;95.67;8.93;;;;;;;;;;5082552;28;20809;-55
2023/08/11 04:44:10;;;;;;;85.07;8.07;;;;;;;;;;5082252;28;20761;-54
2023/08/11 04:46:36;;;;;;;157.60;12.37;;;;;;;;;;5082038;28;20028;-57
2023/08/11 04:49:01;;;;;;;130.10;10.67;;;;;;;;;;5084134;28;20254;-55
2023/08/11 04:51:26;;;;;;;94.00;8.90;;;;;;;;;;5082421;28;20269;-55
2023/08/11 04:53:51;;;;;;;79.53;7.33;;;;;;;;;;5084861;28;20277;-57
2023/08/11 04:56:16;;;;;;;106.97;9.43;;;;;;;;;;5081974;28;20269;-55
2023/08/11 04:58:42;;;;;;;110.27;10.00;;;;;;;;;;5083500;28;20774;-54
2023/08/11 05:01:07;;;;;;;74.43;8.03;;;;;;;;;;5082392;28;20349;-55
2023/08/11 05:03:33;;;;;;;164.55;13.23;;;;;;;;;;5083233;28;20623;-55
2023/08/11 05:05:58;;;;;;;93.55;8.82;;;;;;;;;;5081796;28;20053;-54
2023/08/11 05:08:23;;;;;;;81.15;8.05;;;;;;;;;;5081571;28;20027;-54
2023/08/11 05:10:48;;;;;;;107.93;8.75;;;;;;;;;;5063708;28;20082;-55
2023/08/11 05:13:14;;;;;;;75.37;7.23;;;;;;;;;;5083308;28;20016;-55
2023/08/11 05:15:40;;;;;;;148.07;12.20;;;;;;;;;;5062182;28;20274;-56
2023/08/11 05:18:05;;;;;;;107.85;9.57;;;;;;;;;;5083941;28;20478;-54
2023/08/11 05:20:30;;;;;;;133.68;11.35;;;;;;;;;;5078785;28;20032;-55
2023/08/11 05:22:56;;;;;;;69.45;7.20;;;;;;;;;;5082227;27;20523;-55
2023/08/11 05:25:21;;;;;;;85.28;8.40;;;;;;;;;;5083379;28;20016;-54
2023/08/11 05:27:47;;;;;;;68.28;6.95;;;;;;;;;;5082146;28;20035;-54
2023/08/11 05:30:12;;;;;;;77.30;7.28;;;;;;;;;;5083243;28;20269;-55
2023/08/11 05:32:38;;;;;;;123.15;9.95;;;;;;;;;;5081656;28;20472;-55
2023/08/11 05:35:03;;;;;;;90.37;7.87;;;;;;;;;;5081779;28;20141;-56
2023/08/11 05:37:28;;;;;;;104.53;14.52;;;;;;;;;;5080815;28;20309;-55
2023/08/11 05:39:53;;;;;;;80.25;7.53;;;;;;;;;;5081321;28;20068;-55
2023/08/11 05:42:19;;;;;;;86.03;7.68;;;;;;;;;;5081640;28;20696;-55
2023/08/11 05:44:44;;;;;;;124.82;11.48;;;;;;;;;;5082526;27;20100;-56
2023/08/11 05:47:09;;;;;;;98.73;8.53;;;;;;;;;;5083509;28;20028;-55
2023/08/11 05:49:35;;;;;;;118.77;10.10;;;;;;;;;;5081148;28;20982;-55
2023/08/11 05:52:00;;;;;;;87.03;7.03;;;;;;;;;;5081946;28;20604;-57
2023/08/11 05:54:25;;;;;;;98.95;8.07;;;;;;;;;;5080405;28;20342;-55
2023/08/11 05:56:52;;;;;;;73.70;6.83;;;;;;;;;;5078735;28;21038;-56
2023/08/11 05:59:18;;;;;;;62.15;6.28;;;;;;;;;;5082390;28;20501;-55
2023/08/11 06:01:43;;;;;;;119.15;15.38;;;;;;;;;;5078234;28;20096;-54
2023/08/11 06:04:10;;;;;;;75.20;15.93;;;;;;;;;;5080880;28;20426;-57
2023/08/11 06:06:36;;;;;;;120.57;23.00;;;;;;;;;;5079058;28;20078;-55
2023/08/11 06:09:03;;;;;;;153.50;101.95;;;;;;;;;;5081614;28;20016;-56
2023/08/11 06:11:28;;;;;;;298.25;267.30;;;;;;;;;;5080670;28;20035;-56
2023/08/11 06:13:53;;;;;;;375.37;341.37;;;;;;;;;;5082416;28;20020;-56
2023/08/11 06:16:19;;;;;;;499.10;452.40;;;;;;;;;;5081294;28;20718;-58
2023/08/11 06:18:44;;;;;;;335.30;299.50;;;;;;;;;;5078716;28;20250;-56
2023/08/11 06:21:09;;;;;;;226.67;203.37;;;;;;;;;;5079602;28;20850;-56
2023/08/11 06:23:34;;;;;;;201.03;134.33;;;;;;;;;;5080539;28;20431;-55
2023/08/11 06:26:00;;;;;;;126.90;79.90;;;;;;;;;;5081382;28;20262;-55
2023/08/11 06:28:25;;;;;;;128.73;86.40;;;;;;;;;;5082621;28;20016;-58
2023/08/11 06:30:50;;;;;;;178.90;145.02;;;;;;;;;;5078676;28;20270;-57
2023/08/11 06:33:15;;;;;;;159.57;142.63;;;;;;;;;;5084190;28;20011;-57
2023/08/11 06:35:42;;;;;;;175.33;103.80;;;;;;;;;;5080321;28;20438;-58
2023/08/11 06:38:08;;;;;;;129.73;81.88;;;;;;;;;;5081694;28;20881;-56
2023/08/11 06:40:34;;;;;;;121.82;85.70;;;;;;;;;;5079722;28;20058;-57
2023/08/11 06:43:00;;;;;;;127.45;88.20;;;;;;;;;;5082039;28;20569;-55
2023/08/11 06:45:25;;;;;;;127.53;89.70;;;;;;;;;;5083804;28;20036;-55
2023/08/11 06:47:51;;;;;;;115.47;83.70;;;;;;;;;;5084505;28;21782;-55
2023/08/11 06:50:16;;;;;;;118.85;102.20;;;;;;;;;;5085552;28;20048;-55
2023/08/11 06:52:41;;;;;;;154.95;87.40;;;;;;;;;;5082580;28;20008;-55
2023/08/11 06:55:07;;;;;;;107.33;76.40;;;;;;;;;;5084836;28;20485;-55
2023/08/11 06:57:32;;;;;;;126.45;95.47;;;;;;;;;;5085529;28;20802;-55
2023/08/11 06:59:57;;;;;;;135.70;97.23;;;;;;;;;;5085672;28;20451;-55
2023/08/11 07:02:23;;;;;;;143.60;128.73;;;;;;;;;;5082939;28;20393;-55
2023/08/11 07:04:48;;;;;;;138.47;88.97;;;;;;;;;;5088431;28;20019;-56
2023/08/11 07:07:13;;;;;;;123.73;92.63;;;;;;;;;;5087861;28;20123;-57
2023/08/11 07:09:38;;;;;;;132.23;87.83;;;;;;;;;;5087714;28;20663;-55
2023/08/11 07:12:04;;;;;;;134.77;121.27;;;;;;;;;;5088802;28;20449;-56
2023/08/11 07:14:29;;;;;;;130.65;115.32;;;;;;;;;;5088829;28;20146;-57
2023/08/11 07:16:55;;;;;;;125.87;112.73;;;;;;;;;;5088628;28;20032;-58
2023/08/11 07:19:20;;;;;;;119.63;96.10;;;;;;;;;;5088442;28;20023;-55
2023/08/11 07:21:45;;;;;;;136.77;102.40;;;;;;;;;;5087048;28;20036;-56
2023/08/11 07:24:10;;;;;;;115.93;104.33;;;;;;;;;;5088295;28;20023;-57
2023/08/11 07:26:36;;;;;;;136.25;115.22;;;;;;;;;;5087737;28;20071;-56
2023/08/11 07:29:01;;;;;;;123.23;99.53;;;;;;;;;;5090506;28;20027;-55
2023/08/11 07:31:26;;;;;;;144.37;129.77;;;;;;;;;;5088810;28;20263;-54
2023/08/11 07:33:51;;;;;;;149.23;118.13;;;;;;;;;;5087426;28;20028;-54
2023/08/11 07:36:17;;;;;;;137.77;122.80;;;;;;;;;;5087663;28;20247;-54
2023/08/11 07:38:42;;;;;;;146.70;103.23;;;;;;;;;;5088080;28;20119;-54
2023/08/11 07:41:07;;;;;;;135.85;122.70;;;;;;;;;;5087538;28;20545;-54
2023/08/11 07:43:33;;;;;;;149.25;131.25;;;;;;;;;;5089622;28;20016;-56
2023/08/11 07:45:58;;;;;;;139.23;125.93;;;;;;;;;;5085804;27;20024;-55
2023/08/11 07:48:23;;;;;;;156.57;141.30;;;;;;;;;;5088107;28;20657;-55
2023/08/11 07:50:48;;;;;;;174.67;118.47;;;;;;;;;;5085729;28;20268;-55
2023/08/11 07:53:14;;;;;;;153.80;138.57;;;;;;;;;;5088199;28;20405;-54
2023/08/11 07:55:40;;;;;;;256.53;213.47;;;;;;;;;;5087170;28;20024;-54
2023/08/11 07:58:06;;;;;;;121.55;104.97;;;;;;;;;;5065492;28;20344;-56
2023/08/11 08:00:31;;;;;;;156.80;141.13;;;;;;;;;;5086009;28;20558;-55
2023/08/11 08:02:57;;;;;;;136.93;122.40;;;;;;;;;;5087581;28;20036;-55
2023/08/11 08:05:22;;;;;;;166.57;149.50;;;;;;;;;;5087619;28;20250;-55
2023/08/11 08:07:47;;;;;;;155.63;128.57;;;;;;;;;;5086615;28;20036;-55
2023/08/11 08:10:14;;;;;;;159.68;144.52;;;;;;;;;;5088961;28;20262;-55
2023/08/11 08:12:41;;;;;;;166.75;145.27;;;;;;;;;;5087826;28;20051;-55
2023/08/11 08:15:07;;;;;;;195.05;175.98;;;;;;;;;;5089532;27;20382;-55
2023/08/11 08:17:33;;;;;;;264.10;237.15;;;;;;;;;;5089143;28;20095;-56
2023/08/11 08:19:58;;;;;;;161.17;143.87;;;;;;;;;;5085911;28;20104;-54
2023/08/11 08:22:23;;;;;;;158.67;142.90;;;;;;;;;;5087113;28;20273;-55
2023/08/11 08:24:48;;;;;;;183.90;164.70;;;;;;;;;;5086946;28;20012;-54
2023/08/11 08:27:15;;;;;;;204.43;182.97;;;;;;;;;;5087644;28;20627;-54
2023/08/11 08:29:40;;;;;;;144.35;128.88;;;;;;;;;;5086341;28;20397;-56
2023/08/11 08:32:05;;;;;;;146.13;131.38;;;;;;;;;;5087949;28;20733;-56
2023/08/11 08:34:31;;;;;;;194.77;175.17;;;;;;;;;;5089707;28;20240;-54
2023/08/11 08:36:56;;;;;;;163.90;130.23;;;;;;;;;;5086507;28;20032;-53
2023/08/11 08:39:21;;;;;;;290.77;261.33;;;;;;;;;;5086945;28;20020;-54
2023/08/11 08:41:47;;;;;;;184.97;141.77;;;;;;;;;;5084975;28;20360;-54
2023/08/11 08:44:13;;;;;;;151.93;137.43;;;;;;;;;;5086701;28;20031;-55
2023/08/11 08:46:39;;;;;;;166.30;149.52;;;;;;;;;;5085606;28;20028;-54
2023/08/11 08:49:24;;;;;;;180.73;162.32;;;;;;;;;;5088507;28;20015;-54
2023/08/11 08:51:49;;;;;;;196.18;174.70;;;;;;;;;;5085096;28;20043;-54
2023/08/11 08:54:15;;;;;;;388.33;347.80;;;;;;;;;;5087541;28;20027;-53
2023/08/11 08:56:41;;;;;;;197.70;178.25;;;;;;;;;;5086071;28;20417;-54
2023/08/11 08:59:07;;;;;;;146.23;131.65;;;;;;;;;;5086253;28;20043;-54
2023/08/11 09:01:33;;;;;;;157.30;141.38;;;;;;;;;;5088107;28;20120;-55
2023/08/11 09:03:59;;;;;;;176.98;145.88;;;;;;;;;;5085172;28;20026;-53
2023/08/11 09:06:25;;;;;;;170.68;153.82;;;;;;;;;;5086258;28;20028;-54
2023/08/11 09:08:51;;;;;;;176.90;152.82;;;;;;;;;;5083576;28;20027;-54
2023/08/11 09:11:16;;;;;;;178.30;160.63;;;;;;;;;;5086294;28;20032;-56
2023/08/11 09:13:43;;;;;;;190.23;169.80;;;;;;;;;;5085153;28;20023;-53
2023/08/11 09:16:08;;;;;;;177.43;160.52;;;;;;;;;;5086836;28;20814;-55
2023/08/11 09:18:34;;;;;;;229.33;206.00;;;;;;;;;;5086296;28;20023;-53
2023/08/11 09:21:00;;;;;;;162.80;120.50;;;;;;;;;;5083660;28;20035;-54
2023/08/11 09:23:26;;;;;;;148.10;133.13;;;;;;;;;;5087259;28;20285;-54
2023/08/11 09:25:52;;;;;;;350.63;262.03;;;;;;;;;;5084854;28;20039;-55
2023/08/11 09:28:18;;;;;;;189.75;172.43;;;;;;;;;;5086289;28;20067;-54
2023/08/11 09:30:43;;;;;;;243.15;215.05;;;;;;;;;;5081569;28;20118;-54
2023/08/11 09:33:11;;;;;;;279.33;250.13;;;;;;;;;;5088021;28;20631;-53
2023/08/11 09:35:36;;;;;;;170.35;152.65;;;;;;;;;;5085199;28;20265;-55
2023/08/11 09:38:02;;;;;;;165.27;147.80;;;;;;;;;;5083696;28;20028;-54
2023/08/11 09:40:27;;;;;;;124.50;110.93;;;;;;;;;;5086159;28;20260;-56
2023/08/11 09:42:53;;;;;;;206.30;155.43;;;;;;;;;;5083942;28;20438;-55
2023/08/11 09:45:19;;;;;;;111.72;97.60;;;;;;;;;;5085284;28;20031;-56
2023/08/11 09:47:44;;;;;;;249.97;215.97;;;;;;;;;;5087015;28;20497;-55
2023/08/11 09:50:09;;;;;;;154.83;138.23;;;;;;;;;;5085232;28;20033;-55
2023/08/11 09:52:35;;;;;;;214.23;190.77;;;;;;;;;;5087038;28;20032;-55
2023/08/11 09:55:05;;;;;;;243.05;193.80;;;;;;;;;;5084145;28;20027;-55
2023/08/11 09:57:30;;;;;;;213.13;184.25;;;;;;;;;;5087003;28;20036;-55
2023/08/11 09:59:57;;;;;;;272.80;203.97;;;;;;;;;;5083213;28;20020;-55
2023/08/11 10:02:23;;;;;;;316.73;284.08;;;;;;;;;;5085725;28;20497;-57
2023/08/11 10:04:56;;;;;;;312.00;244.35;;;;;;;;;;5082527;28;20015;-59
2023/08/11 10:07:23;;;;;;;151.45;133.32;;;;;;;;;;5085811;28;20521;-55
2023/08/11 10:09:49;;;;;;;167.13;120.93;;;;;;;;;;5083725;28;20031;-55
2023/08/11 10:12:16;;;;;;;162.38;144.68;;;;;;;;;;5084396;28;20055;-54
2023/08/11 10:14:42;;;;;;;319.15;269.48;;;;;;;;;;5086322;28;20016;-53
2023/08/11 10:17:07;;;;;;;159.75;137.13;;;;;;;;;;5082484;28;20051;-56
2023/08/11 10:19:33;;;;;;;280.85;232.93;;;;;;;;;;5085578;28;20028;-54
2023/08/11 10:21:58;;;;;;;266.45;194.07;;;;;;;;;;5082801;28;20603;-55
2023/08/11 10:24:24;;;;;;;211.00;187.13;;;;;;;;;;5085433;28;20876;-53
2023/08/11 10:26:50;;;;;;;289.92;241.25;;;;;;;;;;5081893;28;20468;-54
2023/08/11 10:29:15;;;;;;;232.32;209.23;;;;;;;;;;5085923;28;20016;-53
2023/08/11 10:31:54;;;;;;;151.10;128.25;;;;;;;;;;5084254;28;20033;-53
2023/08/11 10:34:21;;;;;;;166.55;148.68;;;;;;;;;;5074270;28;20076;-56
2023/08/11 10:36:46;;;;;;;159.48;142.95;;;;;;;;;;5086544;28;20040;-55
2023/08/11 10:39:16;;;;;;;347.90;310.63;;;;;;;;;;5083989;28;20020;-54
2023/08/11 10:41:44;;;;;;;240.37;214.67;;;;;;;;;;5083976;28;20027;-55
2023/08/11 10:44:09;;;;;;;149.95;114.60;;;;;;;;;;5083840;28;20024;-54
2023/08/11 10:46:35;;;;;;;153.53;137.67;;;;;;;;;;5085521;28;20058;-55
2023/08/11 10:49:03;;;;;;;182.77;130.85;;;;;;;;;;5083503;28;20354;-55
2023/08/11 10:51:32;;;;;;;188.60;158.05;;;;;;;;;;5087321;28;20608;-55
2023/08/11 10:54:01;;;;;;;250.68;204.23;;;;;;;;;;5083129;28;20020;-55
2023/08/11 10:56:28;;;;;;;184.93;165.15;;;;;;;;;;5076430;28;20047;-55
2023/08/11 10:59:03;;;;;;;272.83;213.30;;;;;;;;;;5085614;28;20496;-55
2023/08/11 11:01:28;;;;;;;143.10;128.57;;;;;;;;;;5083101;28;20051;-56
2023/08/11 11:03:54;;;;;;;185.20;127.17;;;;;;;;;;5084095;28;20020;-56
2023/08/11 11:06:21;;;;;;;166.27;148.90;;;;;;;;;;5087268;28;20627;-55
2023/08/11 11:08:46;;;;;;;168.35;151.38;;;;;;;;;;5085324;28;20026;-57
2023/08/11 11:11:11;;;;;;;175.30;156.47;;;;;;;;;;5083260;28;20027;-55
2023/08/11 11:13:36;;;;;;;151.27;130.37;;;;;;;;;;5085524;28;20020;-55
2023/08/11 11:16:02;;;;;;;180.10;128.87;;;;;;;;;;5084439;28;20389;-56
2023/08/11 11:18:27;;;;;;;179.83;152.93;;;;;;;;;;5085225;28;20082;-56
2023/08/11 11:20:52;;;;;;;303.25;272.25;;;;;;;;;;5082719;28;20350;-55
2023/08/11 11:23:18;;;;;;;166.23;148.20;;;;;;;;;;5087122;28;20483;-55
2023/08/11 11:25:43;;;;;;;177.80;152.27;;;;;;;;;;5086569;28;20248;-55
2023/08/11 11:28:11;;;;;;;188.98;169.73;;;;;;;;;;5084992;28;20046;-57
2023/08/11 11:30:37;;;;;;;197.85;176.27;;;;;;;;;;5084586;28;20063;-55
2023/08/11 11:33:02;;;;;;;243.95;188.27;;;;;;;;;;5088592;28;20095;-56
2023/08/11 11:35:27;;;;;;;144.27;128.70;;;;;;;;;;5089479;28;20075;-55
2023/08/11 11:37:54;;;;;;;191.00;128.55;;;;;;;;;;5086956;28;20097;-55
2023/08/11 11:40:19;;;;;;;159.90;143.02;;;;;;;;;;5089922;28;20019;-54
2023/08/11 11:42:46;;;;;;;196.40;177.05;;;;;;;;;;5090638;28;20026;-56
2023/08/11 11:45:12;;;;;;;175.18;152.90;;;;;;;;;;5088205;28;20024;-55
2023/08/11 11:47:37;;;;;;;144.77;124.38;;;;;;;;;;5090436;28;20085;-58
2023/08/11 11:50:06;;;;;;;192.90;156.10;;;;;;;;;;5086584;28;20067;-55
2023/08/11 11:52:32;;;;;;;144.95;98.97;;;;;;;;;;5089381;28;20025;-54
2023/08/11 11:54:57;;;;;;;170.43;117.20;;;;;;;;;;5088449;28;20035;-54
2023/08/11 11:57:22;;;;;;;175.40;154.27;;;;;;;;;;5088814;28;20061;-53
2023/08/11 11:59:49;;;;;;;217.45;178.15;;;;;;;;;;5088696;28;20621;-53
2023/08/11 12:02:16;;;;;;;228.52;194.23;;;;;;;;;;5087813;27;20037;-54
2023/08/11 12:04:45;;;;;;;131.60;106.55;;;;;;;;;;5090171;28;20023;-56
2023/08/11 12:07:26;;;;;;;185.27;161.48;;;;;;;;;;5085759;28;20038;-53
2023/08/11 12:09:52;;;;;;;125.38;94.40;;;;;;;;;;5066850;28;20593;-54
2023/08/11 12:12:17;;;;;;;116.18;86.93;;;;;;;;;;5087660;28;20035;-53
2023/08/11 12:14:42;;;;;;;125.13;92.18;;;;;;;;;;5088860;28;20719;-54
2023/08/11 12:17:08;;;;;;;165.43;72.90;;;;;;;;;;5084461;28;20532;-53
2023/08/11 12:19:33;;;;;;;128.43;73.82;;;;;;;;;;5086666;28;20268;-53
2023/08/11 12:21:58;;;;;;;185.30;123.50;;;;;;;;;;5086234;28;20135;-53
2023/08/11 12:24:23;;;;;;;173.57;154.87;;;;;;;;;;5088282;28;20099;-54
2023/08/11 12:26:49;;;;;;;102.33;60.80;;;;;;;;;;5071077;28;20036;-53
2023/08/11 12:29:14;;;;;;;367.15;321.30;;;;;;;;;;5085912;28;20273;-54
2023/08/11 12:31:39;;;;;;;145.88;108.55;;;;;;;;;;5088750;28;20043;-54
2023/08/11 12:34:05;;;;;;;194.30;93.23;;;;;;;;;;5086197;28;20020;-54
2023/08/11 12:36:30;;;;;;;102.90;63.20;;;;;;;;;;5087589;28;20035;-53
2023/08/11 12:38:55;;;;;;;131.77;99.50;;;;;;;;;;5088847;28;20877;-54
2023/08/11 12:41:20;;;;;;;109.27;60.27;;;;;;;;;;5078056;28;20128;-54
2023/08/11 12:43:46;;;;;;;104.13;73.28;;;;;;;;;;5090678;28;20909;-55
2023/08/11 12:46:11;;;;;;;321.90;231.83;;;;;;;;;;5087129;28;20089;-54
2023/08/11 12:48:36;;;;;;;116.77;69.80;;;;;;;;;;5087951;27;20099;-54
2023/08/11 12:51:01;;;;;;;165.73;73.40;;;;;;;;;;5085425;28;20157;-56
2023/08/11 12:53:27;;;;;;;110.93;67.93;;;;;;;;;;5090042;28;20619;-54
2023/08/11 12:55:52;;;;;;;109.10;54.83;;;;;;;;;;5087318;28;20281;-57
2023/08/11 12:58:18;;;;;;;122.43;101.40;;;;;;;;;;5088192;28;20024;-54
2023/08/11 13:00:43;;;;;;;117.82;74.97;;;;;;;;;;5071944;28;20084;-56
2023/08/11 13:03:09;;;;;;;167.37;100.43;;;;;;;;;;5086822;28;20023;-56
2023/08/11 13:05:34;;;;;;;117.17;93.33;;;;;;;;;;5087087;28;20031;-56
2023/08/11 13:07:59;;;;;;;185.73;102.77;;;;;;;;;;5087653;28;20261;-54
2023/08/11 13:10:25;;;;;;;127.47;83.35;;;;;;;;;;5085723;28;20030;-55
2023/08/11 13:12:50;;;;;;;133.80;111.20;;;;;;;;;;5087927;28;20019;-54
2023/08/11 13:15:16;;;;;;;98.57;75.72;;;;;;;;;;5089206;28;20031;-56
2023/08/11 13:17:44;;;;;;;132.23;95.38;;;;;;;;;;5086841;28;20058;-55
2023/08/11 13:20:09;;;;;;;139.43;64.82;;;;;;;;;;5085799;28;20796;-54
2023/08/11 13:22:37;;;;;;;102.60;63.75;;;;;;;;;;5088531;28;20551;-53
2023/08/11 13:25:03;;;;;;;175.15;63.13;;;;;;;;;;5085669;28;20062;-56
2023/08/11 13:27:28;;;;;;;133.38;98.97;;;;;;;;;;5088273;28;20051;-55
2023/08/11 13:29:53;;;;;;;95.88;66.80;;;;;;;;;;5087169;28;20024;-53
2023/08/11 13:32:18;;;;;;;116.40;67.07;;;;;;;;;;5085824;28;20032;-55
2023/08/11 13:34:44;;;;;;;201.77;180.47;;;;;;;;;;5087598;28;20501;-54
2023/08/11 13:37:09;;;;;;;177.00;120.40;;;;;;;;;;5085489;28;20474;-56
2023/08/11 13:39:34;;;;;;;296.87;220.93;;;;;;;;;;5088924;28;20019;-54
2023/08/11 13:41:59;;;;;;;139.35;66.50;;;;;;;;;;5087116;28;20334;-56
2023/08/11 13:44:25;;;;;;;94.03;63.67;;;;;;;;;;5085537;28;20333;-57
2023/08/11 13:46:50;;;;;;;123.43;54.77;;;;;;;;;;5087029;28;20035;-56
2023/08/11 13:49:15;;;;;;;129.13;106.80;;;;;;;;;;5086578;27;20085;-53
2023/08/11 13:51:41;;;;;;;160.83;140.53;;;;;;;;;;5086402;28;20308;-53
2023/08/11 13:54:06;;;;;;;186.00;122.13;;;;;;;;;;5084621;28;20368;-53
2023/08/11 13:56:34;;;;;;;104.90;55.97;;;;;;;;;;5085510;28;20066;-55
2023/08/11 13:59:01;;;;;;;285.90;185.75;;;;;;;;;;5084893;28;20283;-53